DABB/AAE METAR and TAF weather

Enter ICAO airport designator
Station Type Date Time Source
DABB METAR 2021/01/16 02:00 UTC NOAA

DABB 160200Z 27009KT 8000 FEW020 BKN030 09/08 Q1019


Station Type Date Time Source
DABB Decoded METAR 2021/01/16 02:00 UTC NOAA

Annaba, Algeria (DABB) 36-50N 007-49E 4M
Jan 15, 2021 - 09:00 PM EST / 2021.01.16 0200 UTC
Wind: from the W (270 degrees) at 10 MPH (9 KT):0
Visibility: 4 mile(s):0
Sky conditions: mostly cloudy
Temperature: 48 F (9 C)
Dew Point: 46 F (8 C)
Relative Humidity: 93%
Pressure (altimeter): 30.09 in. Hg (1019 hPa)
ob: DABB 160200Z 27009KT 8000 FEW020 BKN030 09/08 Q1019
cycle: 2

Station Type Date Time Source
DABB TAF 2021/01/16 00:00 UTC NOAA

TAF COR DABB 152300Z 1600/1624 26012KT 9999 FEW026 BKN030
TEMPO 1600/1612 31015G25KT 5000 -RA BKN015 FEW023CB PROB40
TEMPO 1600/1607 3000 -TSRAGR SCT015CB
TEMPO 1612/1621 31015G30KT 5000 -SHRA FEW023CB

Example: see airport list